sensor_id;sensor_type;location;lat;lon;timestamp;pressure;altitude;pressure_sealevel;temperature;humidity
74169;BME280;62523;53.336;83.690;2024-03-08T00:01:18;99455.56;;;-7.10;100.00
74169;BME280;62523;53.336;83.690;2024-03-08T00:06:20;99450.44;;;-7.10;100.00
74169;BME280;62523;53.336;83.690;2024-03-08T00:11:21;99444.44;;;-7.14;100.00
74169;BME280;62523;53.336;83.690;2024-03-08T00:16:22;99441.00;;;-7.14;100.00
74169;BME280;62523;53.336;83.690;2024-03-08T00:21:24;99444.16;;;-7.29;100.00
74169;BME280;62523;53.336;83.690;2024-03-08T00:26:27;99442.28;;;-7.38;100.00
74169;BME280;62523;53.336;83.690;2024-03-08T00:31:30;99446.22;;;-7.08;100.00
74169;BME280;62523;53.336;83.690;2024-03-08T00:36:32;99450.28;;;-7.21;100.00
74169;BME280;62523;53.336;83.690;2024-03-08T00:41:34;99462.19;;;-7.25;100.00
74169;BME280;62523;53.336;83.690;2024-03-08T00:46:35;99466.47;;;-7.22;100.00
74169;BME280;62523;53.336;83.690;2024-03-08T00:51:37;99467.47;;;-7.14;100.00
74169;BME280;62523;53.336;83.690;2024-03-08T00:56:38;99461.28;;;-7.25;100.00
74169;BME280;62523;53.336;83.690;2024-03-08T01:01:43;99461.75;;;-7.48;100.00
74169;BME280;62523;53.336;83.690;2024-03-08T01:06:45;99459.31;;;-7.42;100.00
74169;BME280;62523;53.336;83.690;2024-03-08T01:11:48;99456.41;;;-7.60;100.00
74169;BME280;62523;53.336;83.690;2024-03-08T01:16:50;99449.63;;;-7.58;100.00
74169;BME280;62523;53.336;83.690;2024-03-08T01:21:52;99459.72;;;-7.64;100.00
74169;BME280;62523;53.336;83.690;2024-03-08T01:26:53;99463.72;;;-7.33;100.00
74169;BME280;62523;53.336;83.690;2024-03-08T01:31:55;99464.63;;;-7.31;100.00
74169;BME280;62523;53.336;83.690;2024-03-08T01:36:57;99471.34;;;-7.36;100.00
74169;BME280;62523;53.336;83.690;2024-03-08T01:42:05;99470.47;;;-7.36;100.00
74169;BME280;62523;53.336;83.690;2024-03-08T01:47:06;99477.59;;;-7.20;100.00
74169;BME280;62523;53.336;83.690;2024-03-08T01:52:08;99481.13;;;-7.13;100.00
74169;BME280;62523;53.336;83.690;2024-03-08T01:57:10;99480.34;;;-7.08;100.00
74169;BME280;62523;53.336;83.690;2024-03-08T02:02:14;99490.53;;;-7.12;100.00
74169;BME280;62523;53.336;83.690;2024-03-08T02:07:19;99494.19;;;-6.98;100.00
74169;BME280;62523;53.336;83.690;2024-03-08T02:12:21;99510.34;;;-7.02;100.00
74169;BME280;62523;53.336;83.690;2024-03-08T02:17:22;99517.31;;;-6.93;100.00
74169;BME280;62523;53.336;83.690;2024-03-08T02:22:24;99523.41;;;-6.87;100.00
74169;BME280;62523;53.336;83.690;2024-03-08T02:27:26;99521.63;;;-6.92;100.00
74169;BME280;62523;53.336;83.690;2024-03-08T02:32:27;99526.22;;;-6.71;100.00
74169;BME280;62523;53.336;83.690;2024-03-08T02:37:29;99541.41;;;-6.82;100.00
74169;BME280;62523;53.336;83.690;2024-03-08T02:42:30;99534.69;;;-6.75;100.00
74169;BME280;62523;53.336;83.690;2024-03-08T02:47:32;99554.03;;;-6.43;100.00
74169;BME280;62523;53.336;83.690;2024-03-08T02:52:34;99546.59;;;-6.24;100.00
74169;BME280;62523;53.336;83.690;2024-03-08T02:57:36;99546.09;;;-6.00;100.00
74169;BME280;62523;53.336;83.690;2024-03-08T03:02:38;99548.31;;;-6.25;100.00
74169;BME280;62523;53.336;83.690;2024-03-08T03:07:39;99563.56;;;-6.32;100.00
74169;BME280;62523;53.336;83.690;2024-03-08T03:12:41;99573.50;;;-5.96;100.00
74169;BME280;62523;53.336;83.690;2024-03-08T03:17:46;99565.81;;;-5.96;100.00
74169;BME280;62523;53.336;83.690;2024-03-08T03:22:49;99578.50;;;-6.07;100.00
74169;BME280;62523;53.336;83.690;2024-03-08T03:27:53;99581.63;;;-6.28;100.00
74169;BME280;62523;53.336;83.690;2024-03-08T03:32:57;99595.53;;;-6.12;100.00
74169;BME280;62523;53.336;83.690;2024-03-08T03:38:01;99596.09;;;-6.30;100.00
74169;BME280;62523;53.336;83.690;2024-03-08T03:43:09;99596.97;;;-5.70;100.00
74169;BME280;62523;53.336;83.690;2024-03-08T03:48:13;99605.88;;;-6.06;100.00
74169;BME280;62523;53.336;83.690;2024-03-08T03:53:15;99616.84;;;-6.14;100.00
74169;BME280;62523;53.336;83.690;2024-03-08T03:58:16;99609.47;;;-5.94;100.00
74169;BME280;62523;53.336;83.690;2024-03-08T04:03:23;99615.63;;;-5.79;100.00
74169;BME280;62523;53.336;83.690;2024-03-08T04:08:24;99628.66;;;-5.65;100.00
74169;BME280;62523;53.336;83.690;2024-03-08T04:13:26;99630.53;;;-5.53;100.00
74169;BME280;62523;53.336;83.690;2024-03-08T04:18:28;99637.88;;;-5.81;100.00
74169;BME280;62523;53.336;83.690;2024-03-08T04:23:29;99635.31;;;-5.79;100.00
74169;BME280;62523;53.336;83.690;2024-03-08T04:28:31;99646.56;;;-5.69;100.00
74169;BME280;62523;53.336;83.690;2024-03-08T04:33:32;99662.66;;;-5.80;100.00
74169;BME280;62523;53.336;83.690;2024-03-08T04:38:36;99661.13;;;-5.68;100.00
74169;BME280;62523;53.336;83.690;2024-03-08T04:43:37;99672.84;;;-5.86;100.00
74169;BME280;62523;53.336;83.690;2024-03-08T04:48:39;99676.13;;;-5.98;100.00
74169;BME280;62523;53.336;83.690;2024-03-08T04:53:43;99676.97;;;-5.94;100.00
74169;BME280;62523;53.336;83.690;2024-03-08T04:58:45;99684.53;;;-6.05;100.00
74169;BME280;62523;53.336;83.690;2024-03-08T05:03:47;99681.31;;;-5.32;100.00
74169;BME280;62523;53.336;83.690;2024-03-08T05:08:51;99686.34;;;-5.38;100.00
74169;BME280;62523;53.336;83.690;2024-03-08T05:13:52;99692.94;;;-5.57;100.00
74169;BME280;62523;53.336;83.690;2024-03-08T05:18:54;99693.75;;;-5.60;100.00
74169;BME280;62523;53.336;83.690;2024-03-08T05:23:57;99694.31;;;-4.49;100.00
74169;BME280;62523;53.336;83.690;2024-03-08T05:28:59;99686.13;;;-4.92;100.00
74169;BME280;62523;53.336;83.690;2024-03-08T05:34:00;99689.88;;;-4.61;100.00
74169;BME280;62523;53.336;83.690;2024-03-08T05:39:02;99692.84;;;-5.01;100.00
74169;BME280;62523;53.336;83.690;2024-03-08T05:44:06;99695.69;;;-4.79;100.00
74169;BME280;62523;53.336;83.690;2024-03-08T05:49:07;99697.22;;;-4.94;100.00
74169;BME280;62523;53.336;83.690;2024-03-08T05:54:12;99706.25;;;-5.23;100.00
74169;BME280;62523;53.336;83.690;2024-03-08T05:59:13;99707.25;;;-5.13;100.00
74169;BME280;62523;53.336;83.690;2024-03-08T06:04:15;99718.22;;;-5.27;100.00
74169;BME280;62523;53.336;83.690;2024-03-08T06:09:19;99724.16;;;-5.28;100.00
74169;BME280;62523;53.336;83.690;2024-03-08T06:14:24;99727.63;;;-5.26;100.00
74169;BME280;62523;53.336;83.690;2024-03-08T06:19:25;99731.53;;;-5.52;100.00
74169;BME280;62523;53.336;83.690;2024-03-08T06:24:27;99744.41;;;-5.49;100.00
74169;BME280;62523;53.336;83.690;2024-03-08T06:29:29;99752.09;;;-5.49;100.00
74169;BME280;62523;53.336;83.690;2024-03-08T06:34:32;99754.00;;;-5.36;100.00
74169;BME280;62523;53.336;83.690;2024-03-08T06:39:35;99749.28;;;-5.08;100.00
74169;BME280;62523;53.336;83.690;2024-03-08T06:44:36;99751.03;;;-5.04;100.00
74169;BME280;62523;53.336;83.690;2024-03-08T06:49:39;99757.19;;;-4.95;100.00
74169;BME280;62523;53.336;83.690;2024-03-08T06:54:40;99761.44;;;-4.97;100.00
74169;BME280;62523;53.336;83.690;2024-03-08T06:59:42;99755.34;;;-5.02;100.00
74169;BME280;62523;53.336;83.690;2024-03-08T07:04:43;99752.81;;;-4.27;100.00
74169;BME280;62523;53.336;83.690;2024-03-08T07:09:45;99757.91;;;-4.33;100.00
74169;BME280;62523;53.336;83.690;2024-03-08T07:14:46;99770.41;;;-4.64;100.00
74169;BME280;62523;53.336;83.690;2024-03-08T07:19:48;99778.94;;;-4.68;100.00
74169;BME280;62523;53.336;83.690;2024-03-08T07:24:50;99782.28;;;-4.75;100.00
74169;BME280;62523;53.336;83.690;2024-03-08T07:30:17;99777.31;;;-4.60;100.00
74169;BME280;62523;53.336;83.690;2024-03-08T07:35:38;99777.19;;;-4.70;100.00
74169;BME280;62523;53.336;83.690;2024-03-08T07:40:41;99797.25;;;-5.62;100.00
74169;BME280;62523;53.336;83.690;2024-03-08T07:45:45;99800.09;;;-5.45;100.00
74169;BME280;62523;53.336;83.690;2024-03-08T07:50:46;99806.72;;;-5.58;100.00
74169;BME280;62523;53.336;83.690;2024-03-08T07:55:48;99804.59;;;-5.30;100.00
74169;BME280;62523;53.336;83.690;2024-03-08T08:00:49;99804.44;;;-5.41;100.00
74169;BME280;62523;53.336;83.690;2024-03-08T08:06:00;99809.03;;;-5.22;100.00
74169;BME280;62523;53.336;83.690;2024-03-08T08:11:02;99835.59;;;-5.71;100.00
74169;BME280;62523;53.336;83.690;2024-03-08T08:16:03;99826.44;;;-5.56;100.00
74169;BME280;62523;53.336;83.690;2024-03-08T08:21:07;99820.13;;;-5.23;100.00
74169;BME280;62523;53.336;83.690;2024-03-08T08:26:10;99826.06;;;-5.27;100.00
74169;BME280;62523;53.336;83.690;2024-03-08T08:31:12;99835.75;;;-5.62;100.00
74169;BME280;62523;53.336;83.690;2024-03-08T08:36:14;99843.41;;;-5.64;100.00
74169;BME280;62523;53.336;83.690;2024-03-08T08:41:16;99861.78;;;-5.89;100.00
74169;BME280;62523;53.336;83.690;2024-03-08T08:46:18;99862.81;;;-5.80;100.00
74169;BME280;62523;53.336;83.690;2024-03-08T08:51:20;99873.09;;;-6.25;100.00
74169;BME280;62523;53.336;83.690;2024-03-08T08:56:22;99891.22;;;-5.72;100.00
74169;BME280;62523;53.336;83.690;2024-03-08T09:01:23;99898.66;;;-5.84;100.00
74169;BME280;62523;53.336;83.690;2024-03-08T09:06:24;99901.06;;;-5.95;100.00
74169;BME280;62523;53.336;83.690;2024-03-08T09:11:26;99910.94;;;-6.15;100.00
74169;BME280;62523;53.336;83.690;2024-03-08T09:16:28;99910.94;;;-6.13;100.00
74169;BME280;62523;53.336;83.690;2024-03-08T09:21:29;99920.22;;;-6.20;100.00
74169;BME280;62523;53.336;83.690;2024-03-08T09:26:32;99924.72;;;-6.10;100.00
74169;BME280;62523;53.336;83.690;2024-03-08T09:31:34;99936.59;;;-6.13;100.00
74169;BME280;62523;53.336;83.690;2024-03-08T09:36:35;99942.41;;;-6.22;100.00
74169;BME280;62523;53.336;83.690;2024-03-08T09:41:38;99951.94;;;-6.16;100.00
74169;BME280;62523;53.336;83.690;2024-03-08T09:46:40;99958.84;;;-6.12;100.00
74169;BME280;62523;53.336;83.690;2024-03-08T09:51:42;99961.69;;;-6.40;100.00
74169;BME280;62523;53.336;83.690;2024-03-08T09:56:45;99982.47;;;-6.27;100.00
74169;BME280;62523;53.336;83.690;2024-03-08T10:01:48;99981.53;;;-6.31;100.00
74169;BME280;62523;53.336;83.690;2024-03-08T10:06:50;99985.56;;;-6.42;100.00
74169;BME280;62523;53.336;83.690;2024-03-08T10:11:57;99986.34;;;-6.45;100.00
74169;BME280;62523;53.336;83.690;2024-03-08T10:17:03;99984.09;;;-6.31;100.00
74169;BME280;62523;53.336;83.690;2024-03-08T10:22:05;99989.13;;;-6.72;100.00
74169;BME280;62523;53.336;83.690;2024-03-08T10:27:10;100005.25;;;-6.76;100.00
74169;BME280;62523;53.336;83.690;2024-03-08T10:32:15;100007.97;;;-6.70;100.00
74169;BME280;62523;53.336;83.690;2024-03-08T10:37:16;100003.78;;;-6.66;100.00
74169;BME280;62523;53.336;83.690;2024-03-08T10:42:28;100013.75;;;-6.78;100.00
74169;BME280;62523;53.336;83.690;2024-03-08T10:47:35;100014.25;;;-6.57;100.00
74169;BME280;62523;53.336;83.690;2024-03-08T10:52:42;100036.88;;;-6.75;100.00
74169;BME280;62523;53.336;83.690;2024-03-08T10:57:44;100033.09;;;-6.90;100.00
74169;BME280;62523;53.336;83.690;2024-03-08T11:02:46;100033.84;;;-6.94;100.00
74169;BME280;62523;53.336;83.690;2024-03-08T11:07:50;100044.81;;;-7.00;100.00
74169;BME280;62523;53.336;83.690;2024-03-08T11:12:52;100051.28;;;-7.12;100.00
74169;BME280;62523;53.336;83.690;2024-03-08T11:17:58;100056.34;;;-7.15;100.00
74169;BME280;62523;53.336;83.690;2024-03-08T11:23:03;100069.78;;;-7.24;100.00
74169;BME280;62523;53.336;83.690;2024-03-08T11:28:23;100082.44;;;-7.29;100.00
74169;BME280;62523;53.336;83.690;2024-03-08T11:33:27;100083.31;;;-7.28;100.00
74169;BME280;62523;53.336;83.690;2024-03-08T11:38:31;100096.50;;;-7.45;100.00
74169;BME280;62523;53.336;83.690;2024-03-08T11:43:33;100105.78;;;-7.48;100.00
74169;BME280;62523;53.336;83.690;2024-03-08T11:48:34;100113.09;;;-7.60;100.00
74169;BME280;62523;53.336;83.690;2024-03-08T11:53:37;100125.59;;;-7.71;100.00
74169;BME280;62523;53.336;83.690;2024-03-08T11:58:39;100123.75;;;-7.75;100.00
74169;BME280;62523;53.336;83.690;2024-03-08T12:03:41;100130.22;;;-7.87;100.00
74169;BME280;62523;53.336;83.690;2024-03-08T12:08:46;100142.88;;;-7.91;100.00
74169;BME280;62523;53.336;83.690;2024-03-08T12:13:51;100149.31;;;-8.04;100.00
74169;BME280;62523;53.336;83.690;2024-03-08T12:18:52;100156.78;;;-8.10;100.00
74169;BME280;62523;53.336;83.690;2024-03-08T12:24:08;100159.06;;;-8.18;100.00
74169;BME280;62523;53.336;83.690;2024-03-08T12:29:26;100165.25;;;-8.11;100.00
74169;BME280;62523;53.336;83.690;2024-03-08T12:34:29;100173.13;;;-8.31;100.00
74169;BME280;62523;53.336;83.690;2024-03-08T12:39:30;100176.69;;;-8.27;100.00
74169;BME280;62523;53.336;83.690;2024-03-08T12:44:32;100184.78;;;-8.40;100.00
74169;BME280;62523;53.336;83.690;2024-03-08T12:49:33;100187.84;;;-8.51;100.00
74169;BME280;62523;53.336;83.690;2024-03-08T12:54:35;100188.47;;;-8.58;100.00
74169;BME280;62523;53.336;83.690;2024-03-08T12:59:36;100198.56;;;-8.61;100.00
74169;BME280;62523;53.336;83.690;2024-03-08T13:04:39;100207.53;;;-8.72;100.00
74169;BME280;62523;53.336;83.690;2024-03-08T13:09:40;100208.03;;;-8.82;100.00
74169;BME280;62523;53.336;83.690;2024-03-08T13:14:43;100217.31;;;-8.84;100.00
74169;BME280;62523;53.336;83.690;2024-03-08T13:19:45;100219.38;;;-8.98;100.00
74169;BME280;62523;53.336;83.690;2024-03-08T13:24:46;100214.03;;;-9.04;100.00
74169;BME280;62523;53.336;83.690;2024-03-08T13:29:48;100219.44;;;-8.97;100.00
74169;BME280;62523;53.336;83.690;2024-03-08T13:34:50;100228.72;;;-8.99;100.00
74169;BME280;62523;53.336;83.690;2024-03-08T13:39:56;100234.31;;;-8.85;100.00
74169;BME280;62523;53.336;83.690;2024-03-08T13:44:58;100227.13;;;-8.95;100.00
74169;BME280;62523;53.336;83.690;2024-03-08T13:49:59;100243.03;;;-9.48;100.00
74169;BME280;62523;53.336;83.690;2024-03-08T13:55:01;100235.88;;;-9.35;100.00
74169;BME280;62523;53.336;83.690;2024-03-08T14:00:04;100232.56;;;-9.33;100.00
74169;BME280;62523;53.336;83.690;2024-03-08T14:05:14;100236.72;;;-9.35;100.00
74169;BME280;62523;53.336;83.690;2024-03-08T14:10:17;100247.66;;;-9.60;100.00
74169;BME280;62523;53.336;83.690;2024-03-08T14:15:23;100251.03;;;-9.38;100.00
74169;BME280;62523;53.336;83.690;2024-03-08T14:20:26;100252.16;;;-9.75;100.00
74169;BME280;62523;53.336;83.690;2024-03-08T14:25:27;100260.84;;;-9.70;100.00
74169;BME280;62523;53.336;83.690;2024-03-08T14:30:31;100261.78;;;-9.47;100.00
74169;BME280;62523;53.336;83.690;2024-03-08T14:35:43;100259.25;;;-9.89;100.00
74169;BME280;62523;53.336;83.690;2024-03-08T14:40:45;100277.09;;;-9.68;100.00
74169;BME280;62523;53.336;83.690;2024-03-08T14:45:48;100267.59;;;-9.93;100.00
74169;BME280;62523;53.336;83.690;2024-03-08T14:50:59;100272.91;;;-9.66;100.00
74169;BME280;62523;53.336;83.690;2024-03-08T14:56:01;100279.84;;;-9.84;100.00
74169;BME280;62523;53.336;83.690;2024-03-08T15:01:20;100287.19;;;-9.71;100.00
74169;BME280;62523;53.336;83.690;2024-03-08T15:06:25;100286.19;;;-9.96;100.00
74169;BME280;62523;53.336;83.690;2024-03-08T15:11:27;100289.47;;;-9.77;100.00
74169;BME280;62523;53.336;83.690;2024-03-08T15:16:29;100291.63;;;-10.07;100.00
74169;BME280;62523;53.336;83.690;2024-03-08T15:21:30;100293.31;;;-9.66;100.00
74169;BME280;62523;53.336;83.690;2024-03-08T15:26:32;100290.47;;;-9.95;100.00
74169;BME280;62523;53.336;83.690;2024-03-08T15:31:33;100283.78;;;-10.33;100.00
74169;BME280;62523;53.336;83.690;2024-03-08T15:36:35;100288.16;;;-9.89;100.00
74169;BME280;62523;53.336;83.690;2024-03-08T15:41:37;100264.91;;;-9.96;100.00
74169;BME280;62523;53.336;83.690;2024-03-08T15:46:38;100284.53;;;-10.36;100.00
74169;BME280;62523;53.336;83.690;2024-03-08T15:51:40;100275.69;;;-10.23;100.00
74169;BME280;62523;53.336;83.690;2024-03-08T15:56:42;100275.22;;;-10.14;100.00
74169;BME280;62523;53.336;83.690;2024-03-08T16:01:44;100277.75;;;-10.35;100.00
74169;BME280;62523;53.336;83.690;2024-03-08T16:06:52;100286.41;;;-10.51;100.00
74169;BME280;62523;53.336;83.690;2024-03-08T16:11:53;100286.00;;;-10.60;100.00
74169;BME280;62523;53.336;83.690;2024-03-08T16:16:55;100277.31;;;-10.25;100.00
74169;BME280;62523;53.336;83.690;2024-03-08T16:21:57;100295.66;;;-10.53;100.00
74169;BME280;62523;53.336;83.690;2024-03-08T16:26:58;100289.91;;;-10.68;100.00
74169;BME280;62523;53.336;83.690;2024-03-08T16:32:01;100292.44;;;-10.68;100.00
74169;BME280;62523;53.336;83.690;2024-03-08T16:37:05;100287.34;;;-10.68;100.00
74169;BME280;62523;53.336;83.690;2024-03-08T16:42:06;100298.13;;;-10.74;100.00
74169;BME280;62523;53.336;83.690;2024-03-08T16:47:08;100282.09;;;-10.91;100.00
74169;BME280;62523;53.336;83.690;2024-03-08T16:52:12;100290.41;;;-10.95;100.00
74169;BME280;62523;53.336;83.690;2024-03-08T16:57:15;100295.34;;;-10.98;100.00
74169;BME280;62523;53.336;83.690;2024-03-08T17:02:17;100300.06;;;-10.88;100.00
74169;BME280;62523;53.336;83.690;2024-03-08T17:07:19;100301.06;;;-10.84;100.00
74169;BME280;62523;53.336;83.690;2024-03-08T17:12:23;100297.81;;;-11.00;100.00
74169;BME280;62523;53.336;83.690;2024-03-08T17:17:25;100299.13;;;-10.90;100.00
74169;BME280;62523;53.336;83.690;2024-03-08T17:22:26;100297.59;;;-10.67;100.00
74169;BME280;62523;53.336;83.690;2024-03-08T17:27:29;100296.03;;;-10.83;100.00
74169;BME280;62523;53.336;83.690;2024-03-08T17:32:32;100301.69;;;-11.08;100.00
74169;BME280;62523;53.336;83.690;2024-03-08T17:37:34;100306.78;;;-11.08;100.00
74169;BME280;62523;53.336;83.690;2024-03-08T17:42:36;100308.81;;;-11.19;100.00
74169;BME280;62523;53.336;83.690;2024-03-08T17:47:37;100304.97;;;-10.73;100.00
74169;BME280;62523;53.336;83.690;2024-03-08T17:52:41;100298.09;;;-11.31;100.00
74169;BME280;62523;53.336;83.690;2024-03-08T17:57:43;100298.97;;;-11.48;100.00
74169;BME280;62523;53.336;83.690;2024-03-08T18:02:49;100302.56;;;-11.79;100.00
74169;BME280;62523;53.336;83.690;2024-03-08T18:07:53;100299.03;;;-11.83;100.00
74169;BME280;62523;53.336;83.690;2024-03-08T18:13:03;100296.81;;;-12.11;100.00
74169;BME280;62523;53.336;83.690;2024-03-08T18:18:13;100292.38;;;-12.15;100.00
74169;BME280;62523;53.336;83.690;2024-03-08T18:23:15;100289.50;;;-12.05;100.00
74169;BME280;62523;53.336;83.690;2024-03-08T18:28:17;100299.94;;;-12.17;100.00
74169;BME280;62523;53.336;83.690;2024-03-08T18:33:18;100296.22;;;-12.23;100.00
74169;BME280;62523;53.336;83.690;2024-03-08T18:38:22;100302.47;;;-12.17;100.00
74169;BME280;62523;53.336;83.690;2024-03-08T18:43:23;100294.22;;;-12.29;100.00
74169;BME280;62523;53.336;83.690;2024-03-08T18:48:27;100296.13;;;-12.41;100.00
74169;BME280;62523;53.336;83.690;2024-03-08T18:53:29;100300.88;;;-12.31;100.00
74169;BME280;62523;53.336;83.690;2024-03-08T18:58:31;100288.31;;;-12.11;100.00
74169;BME280;62523;53.336;83.690;2024-03-08T19:03:34;100297.50;;;-12.48;100.00
74169;BME280;62523;53.336;83.690;2024-03-08T19:08:35;100288.78;;;-12.53;100.00
74169;BME280;62523;53.336;83.690;2024-03-08T19:13:37;100286.31;;;-12.51;100.00
74169;BME280;62523;53.336;83.690;2024-03-08T19:18:39;100280.16;;;-12.22;100.00
74169;BME280;62523;53.336;83.690;2024-03-08T19:23:42;100275.13;;;-12.71;100.00
74169;BME280;62523;53.336;83.690;2024-03-08T19:28:45;100285.03;;;-12.43;100.00
74169;BME280;62523;53.336;83.690;2024-03-08T19:33:47;100277.06;;;-12.17;100.00
74169;BME280;62523;53.336;83.690;2024-03-08T19:38:50;100288.72;;;-12.04;100.00
74169;BME280;62523;53.336;83.690;2024-03-08T19:43:51;100280.13;;;-12.40;100.00
74169;BME280;62523;53.336;83.690;2024-03-08T19:48:53;100273.91;;;-12.29;100.00
74169;BME280;62523;53.336;83.690;2024-03-08T19:53:57;100277.09;;;-12.33;100.00
74169;BME280;62523;53.336;83.690;2024-03-08T19:58:59;100271.09;;;-12.51;100.00
74169;BME280;62523;53.336;83.690;2024-03-08T20:04:01;100273.69;;;-12.50;100.00
74169;BME280;62523;53.336;83.690;2024-03-08T20:09:02;100276.16;;;-12.51;100.00
74169;BME280;62523;53.336;83.690;2024-03-08T20:14:04;100267.75;;;-12.50;100.00
74169;BME280;62523;53.336;83.690;2024-03-08T20:19:06;100254.91;;;-12.53;100.00
74169;BME280;62523;53.336;83.690;2024-03-08T20:24:11;100252.69;;;-12.80;100.00
74169;BME280;62523;53.336;83.690;2024-03-08T20:29:12;100258.16;;;-12.89;100.00
74169;BME280;62523;53.336;83.690;2024-03-08T20:34:13;100253.28;;;-12.35;100.00
74169;BME280;62523;53.336;83.690;2024-03-08T20:39:15;100250.16;;;-12.47;100.00
74169;BME280;62523;53.336;83.690;2024-03-08T20:44:16;100250.53;;;-12.56;100.00
74169;BME280;62523;53.336;83.690;2024-03-08T20:49:18;100248.47;;;-12.47;100.00
74169;BME280;62523;53.336;83.690;2024-03-08T20:54:21;100248.16;;;-12.37;100.00
74169;BME280;62523;53.336;83.690;2024-03-08T20:59:23;100245.34;;;-12.41;100.00
74169;BME280;62523;53.336;83.690;2024-03-08T21:04:25;100240.97;;;-12.27;100.00
74169;BME280;62523;53.336;83.690;2024-03-08T21:09:29;100236.44;;;-12.33;100.00
74169;BME280;62523;53.336;83.690;2024-03-08T21:14:32;100236.72;;;-12.45;100.00
74169;BME280;62523;53.336;83.690;2024-03-08T21:19:34;100230.94;;;-12.24;100.00
74169;BME280;62523;53.336;83.690;2024-03-08T21:24:37;100242.41;;;-12.32;100.00
74169;BME280;62523;53.336;83.690;2024-03-08T21:29:39;100230.59;;;-12.32;100.00
74169;BME280;62523;53.336;83.690;2024-03-08T21:34:40;100224.78;;;-12.29;100.00
74169;BME280;62523;53.336;83.690;2024-03-08T21:39:42;100215.41;;;-12.30;100.00
74169;BME280;62523;53.336;83.690;2024-03-08T21:44:44;100207.38;;;-12.22;100.00
74169;BME280;62523;53.336;83.690;2024-03-08T21:49:45;100211.34;;;-12.45;100.00
74169;BME280;62523;53.336;83.690;2024-03-08T21:54:50;100195.06;;;-12.48;100.00
74169;BME280;62523;53.336;83.690;2024-03-08T21:59:51;100197.69;;;-12.47;100.00
74169;BME280;62523;53.336;83.690;2024-03-08T22:04:54;100183.19;;;-12.49;100.00
74169;BME280;62523;53.336;83.690;2024-03-08T22:09:57;100180.91;;;-12.61;100.00
74169;BME280;62523;53.336;83.690;2024-03-08T22:15:00;100181.84;;;-12.59;100.00
74169;BME280;62523;53.336;83.690;2024-03-08T22:20:04;100179.44;;;-12.56;100.00
74169;BME280;62523;53.336;83.690;2024-03-08T22:25:12;100177.09;;;-12.69;100.00
74169;BME280;62523;53.336;83.690;2024-03-08T22:30:19;100178.53;;;-12.58;100.00
74169;BME280;62523;53.336;83.690;2024-03-08T22:35:21;100180.13;;;-12.60;100.00
74169;BME280;62523;53.336;83.690;2024-03-08T22:40:22;100171.88;;;-12.72;100.00
74169;BME280;62523;53.336;83.690;2024-03-08T22:45:28;100167.44;;;-12.76;100.00
74169;BME280;62523;53.336;83.690;2024-03-08T22:50:30;100164.09;;;-12.75;100.00
74169;BME280;62523;53.336;83.690;2024-03-08T22:55:32;100164.81;;;-12.78;100.00
74169;BME280;62523;53.336;83.690;2024-03-08T23:00:33;100161.75;;;-12.89;100.00
74169;BME280;62523;53.336;83.690;2024-03-08T23:05:41;100162.56;;;-12.90;100.00
74169;BME280;62523;53.336;83.690;2024-03-08T23:10:42;100163.75;;;-13.00;100.00
74169;BME280;62523;53.336;83.690;2024-03-08T23:15:44;100168.91;;;-12.98;100.00
74169;BME280;62523;53.336;83.690;2024-03-08T23:20:46;100167.41;;;-13.11;100.00
74169;BME280;62523;53.336;83.690;2024-03-08T23:25:58;100163.75;;;-13.16;100.00
74169;BME280;62523;53.336;83.690;2024-03-08T23:31:00;100165.19;;;-13.05;100.00
74169;BME280;62523;53.336;83.690;2024-03-08T23:36:02;100163.19;;;-12.94;100.00
74169;BME280;62523;53.336;83.690;2024-03-08T23:41:04;100157.63;;;-12.87;100.00
74169;BME280;62523;53.336;83.690;2024-03-08T23:46:05;100152.19;;;-12.94;100.00
74169;BME280;62523;53.336;83.690;2024-03-08T23:51:07;100150.41;;;-12.95;100.00
74169;BME280;62523;53.336;83.690;2024-03-08T23:56:08;100142.56;;;-12.84;100.00
